Time;durP1;ratioP1;P1;durP2;ratioP2;P2;SDS_P1;SDS_P2;PMS_P1;PMS_P2;Temp;Humidity;BMP_temperature;BMP_pressure;BME280_temperature;BME280_humidity;BME280_pressure;Samples;Min_cycle;Max_cycle;Signal;HPM_P1;HPM_P2
2022/09/18 00:01:11;;;;;;;0.50;0.50;;;;;;;;;;4978176;28;20319;-83
2022/09/18 00:03:40;;;;;;;0.40;0.40;;;;;;;;;;4995303;28;20235;-83
2022/09/18 00:06:10;;;;;;;0.47;0.47;;;;;;;;;;4978744;28;20223;-83
2022/09/18 00:08:40;;;;;;;0.40;0.40;;;;;;;;;;4962680;28;20216;-83
2022/09/18 00:11:09;;;;;;;0.40;0.40;;;;;;;;;;4985868;28;20209;-83
2022/09/18 00:13:38;;;;;;;0.50;0.50;;;;;;;;;;4994614;28;20247;-83
2022/09/18 00:16:08;;;;;;;0.43;0.43;;;;;;;;;;4978209;28;20287;-83
2022/09/18 00:18:36;;;;;;;0.40;0.40;;;;;;;;;;4977859;28;20196;-83
2022/09/18 00:21:05;;;;;;;0.40;0.40;;;;;;;;;;4968820;28;20225;-83
2022/09/18 00:23:34;;;;;;;0.50;0.50;;;;;;;;;;4977727;28;20245;-83
2022/09/18 00:26:04;;;;;;;0.40;0.40;;;;;;;;;;4977671;28;20232;-83
2022/09/18 00:28:32;;;;;;;0.50;0.50;;;;;;;;;;4977793;28;20265;-83
2022/09/18 00:31:04;;;;;;;0.50;0.50;;;;;;;;;;4976622;28;20228;-83
2022/09/18 00:33:33;;;;;;;0.50;0.50;;;;;;;;;;4977597;28;20208;-83
2022/09/18 00:36:02;;;;;;;0.50;0.50;;;;;;;;;;4982135;28;20299;-83
2022/09/18 00:38:31;;;;;;;0.40;0.40;;;;;;;;;;4994911;28;20208;-83
2022/09/18 00:41:00;;;;;;;0.40;0.40;;;;;;;;;;4977639;28;20226;-83
2022/09/18 00:43:31;;;;;;;0.50;0.50;;;;;;;;;;4977525;28;20199;-83
2022/09/18 00:46:01;;;;;;;0.50;0.50;;;;;;;;;;4977521;28;20295;-83
2022/09/18 00:48:35;;;;;;;0.50;0.50;;;;;;;;;;4994505;28;20235;-83
2022/09/18 00:51:04;;;;;;;0.40;0.40;;;;;;;;;;4977579;28;20206;-83
2022/09/18 00:53:33;;;;;;;0.40;0.40;;;;;;;;;;4977042;28;20212;-83
2022/09/18 00:56:02;;;;;;;0.50;0.50;;;;;;;;;;4994240;28;20307;-83
2022/09/18 00:58:32;;;;;;;0.50;0.50;;;;;;;;;;4977438;28;20197;-83
2022/09/18 01:01:01;;;;;;;0.50;0.50;;;;;;;;;;4994114;28;20248;-83
2022/09/18 01:03:29;;;;;;;0.40;0.40;;;;;;;;;;4976922;28;20196;-83
2022/09/18 01:06:04;;;;;;;10.23;3.73;;;;;;;;;;4976565;28;20204;-84
2022/09/18 01:08:38;;;;;;;0.50;0.50;;;;;;;;;;4994184;28;20231;-83
2022/09/18 01:11:18;;;;;;;0.50;0.50;;;;;;;;;;4964247;28;20200;-84
2022/09/18 01:13:53;;;;;;;0.50;0.50;;;;;;;;;;4976829;28;20274;-83
2022/09/18 01:16:25;;;;;;;0.50;0.50;;;;;;;;;;4976751;28;20216;-83
2022/09/18 01:18:57;;;;;;;0.50;0.50;;;;;;;;;;4976827;28;20251;-83
2022/09/18 01:21:31;;;;;;;0.50;0.50;;;;;;;;;;4976669;28;20242;-83
2022/09/18 01:24:27;;;;;;;0.50;0.50;;;;;;;;;;4973008;28;20247;-83
2022/09/18 01:26:57;;;;;;;0.40;0.40;;;;;;;;;;4972210;28;20208;-83
2022/09/18 01:29:30;;;;;;;0.47;0.47;;;;;;;;;;4976612;28;20215;-83
2022/09/18 01:32:01;;;;;;;0.40;0.40;;;;;;;;;;4980836;28;20288;-83
2022/09/18 01:34:33;;;;;;;0.40;0.40;;;;;;;;;;4993662;28;20200;-83
2022/09/18 01:37:05;;;;;;;0.50;0.50;;;;;;;;;;4993695;28;20204;-85
2022/09/18 01:39:40;;;;;;;0.50;0.50;;;;;;;;;;4976392;28;20255;-84
2022/09/18 01:42:09;;;;;;;0.40;0.40;;;;;;;;;;4993808;28;20227;-83
2022/09/18 01:44:41;;;;;;;0.50;0.50;;;;;;;;;;4993600;28;20208;-83
2022/09/18 01:47:11;;;;;;;0.50;0.50;;;;;;;;;;4976551;28;20204;-83
2022/09/18 01:49:43;;;;;;;0.50;0.50;;;;;;;;;;4980975;28;20228;-83
2022/09/18 01:52:14;;;;;;;0.50;0.50;;;;;;;;;;4976728;28;20295;-83
2022/09/18 01:54:44;;;;;;;0.43;0.43;;;;;;;;;;4976736;28;20205;-83
2022/09/18 01:57:14;;;;;;;0.50;0.50;;;;;;;;;;4976306;28;20257;-83
2022/09/18 01:59:45;;;;;;;0.50;0.50;;;;;;;;;;4976477;28;20204;-83
2022/09/18 02:02:17;;;;;;;0.50;0.50;;;;;;;;;;4965101;28;20228;-83
2022/09/18 02:04:48;;;;;;;0.57;0.57;;;;;;;;;;4975755;28;20204;-83
2022/09/18 02:07:18;;;;;;;0.50;0.50;;;;;;;;;;4963783;28;20227;-83
2022/09/18 02:09:46;;;;;;;0.50;0.50;;;;;;;;;;4976163;28;20265;-83
2022/09/18 02:12:17;;;;;;;0.40;0.40;;;;;;;;;;4975916;28;20195;-83
2022/09/18 02:14:48;;;;;;;0.50;0.50;;;;;;;;;;4993675;28;20240;-83
2022/09/18 02:17:19;;;;;;;0.50;0.50;;;;;;;;;;4976062;28;20212;-83
2022/09/18 02:19:49;;;;;;;0.50;0.50;;;;;;;;;;4976625;28;20242;-83
2022/09/18 02:22:20;;;;;;;0.50;0.50;;;;;;;;;;4976132;28;20291;-84
2022/09/18 02:24:50;;;;;;;0.50;0.50;;;;;;;;;;4976205;28;20280;-84
2022/09/18 02:27:19;;;;;;;0.50;0.50;;;;;;;;;;4976093;28;20211;-83
2022/09/18 02:29:50;;;;;;;0.50;0.50;;;;;;;;;;4975029;28;20286;-84
2022/09/18 02:32:19;;;;;;;0.50;0.50;;;;;;;;;;4993313;28;20258;-84
2022/09/18 02:34:47;;;;;;;0.50;0.50;;;;;;;;;;4976066;28;20198;-84
2022/09/18 02:37:24;;;;;;;0.50;0.50;;;;;;;;;;4993561;28;20220;-84
2022/09/18 02:39:59;;;;;;;0.50;0.50;;;;;;;;;;4975913;28;20228;-84
2022/09/18 02:42:33;;;;;;;0.47;0.47;;;;;;;;;;4976340;28;20199;-84
2022/09/18 02:45:07;;;;;;;0.47;0.47;;;;;;;;;;4975905;28;20200;-84
2022/09/18 02:47:41;;;;;;;0.50;0.50;;;;;;;;;;4975830;28;20496;-84
2022/09/18 02:50:15;;;;;;;0.50;0.50;;;;;;;;;;4993098;28;20197;-83
2022/09/18 02:52:46;;;;;;;0.47;0.47;;;;;;;;;;4975938;28;20205;-84
2022/09/18 02:55:17;;;;;;;0.50;0.50;;;;;;;;;;4983403;28;20201;-83
2022/09/18 02:57:48;;;;;;;0.40;0.40;;;;;;;;;;4979081;28;20267;-84
2022/09/18 03:00:18;;;;;;;0.50;0.50;;;;;;;;;;4979311;28;20208;-84
2022/09/18 03:02:47;;;;;;;0.50;0.50;;;;;;;;;;4979268;28;20216;-83
2022/09/18 03:05:17;;;;;;;0.40;0.40;;;;;;;;;;4979331;28;20216;-84
2022/09/18 03:07:45;;;;;;;0.40;0.40;;;;;;;;;;4996136;28;20257;-84
2022/09/18 03:10:13;;;;;;;0.50;0.50;;;;;;;;;;4979359;28;20208;-83
2022/09/18 03:12:42;;;;;;;0.40;0.40;;;;;;;;;;4978055;28;20197;-84
2022/09/18 03:15:11;;;;;;;0.50;0.50;;;;;;;;;;4979300;28;20196;-84
2022/09/18 03:17:40;;;;;;;0.50;0.50;;;;;;;;;;4978767;28;20197;-84
2022/09/18 03:20:09;;;;;;;0.50;0.50;;;;;;;;;;4979077;28;20295;-85
2022/09/18 03:22:37;;;;;;;0.50;0.50;;;;;;;;;;4979052;28;20246;-85
2022/09/18 03:25:06;;;;;;;0.40;0.40;;;;;;;;;;4979028;28;20238;-85
2022/09/18 03:27:34;;;;;;;0.50;0.50;;;;;;;;;;4996159;28;20206;-85
2022/09/18 03:30:03;;;;;;;0.40;0.40;;;;;;;;;;4978891;28;20287;-84
2022/09/18 03:32:31;;;;;;;0.50;0.50;;;;;;;;;;4978549;28;20200;-84
2022/09/18 03:35:01;;;;;;;0.50;0.50;;;;;;;;;;4978706;28;20230;-84
2022/09/18 03:37:29;;;;;;;0.50;0.50;;;;;;;;;;4978626;28;20240;-84
2022/09/18 03:39:58;;;;;;;0.50;0.50;;;;;;;;;;4978482;28;20220;-84
2022/09/18 03:42:26;;;;;;;0.50;0.50;;;;;;;;;;4978440;28;20297;-84
2022/09/18 03:44:56;;;;;;;0.43;0.43;;;;;;;;;;4993403;28;20207;-84
2022/09/18 03:47:24;;;;;;;0.40;0.40;;;;;;;;;;4968871;28;20216;-84
2022/09/18 03:49:53;;;;;;;0.50;0.50;;;;;;;;;;4978472;28;20204;-85
2022/09/18 03:52:23;;;;;;;0.50;0.50;;;;;;;;;;4978388;28;20234;-84
2022/09/18 03:54:51;;;;;;;0.50;0.50;;;;;;;;;;4978407;28;20287;-84
2022/09/18 03:57:19;;;;;;;0.40;0.40;;;;;;;;;;4984938;28;20216;-84
2022/09/18 03:59:48;;;;;;;0.50;0.50;;;;;;;;;;4976996;28;20223;-84
2022/09/18 04:02:16;;;;;;;0.50;0.50;;;;;;;;;;4978186;28;20294;-84
2022/09/18 04:04:45;;;;;;;0.40;0.40;;;;;;;;;;4977978;28;20209;-84
2022/09/18 04:07:13;;;;;;;0.40;0.40;;;;;;;;;;4994922;28;20287;-84
2022/09/18 04:09:43;;;;;;;0.50;0.50;;;;;;;;;;4995241;28;20286;-84
2022/09/18 04:12:12;;;;;;;0.47;0.47;;;;;;;;;;4977812;28;20289;-84
2022/09/18 04:14:40;;;;;;;0.50;0.50;;;;;;;;;;4978168;28;20224;-84
2022/09/18 04:17:27;;;;;;;0.50;0.50;;;;;;;;;;5110954;27;20542;-82
2022/09/18 04:19:55;;;;;;;0.47;0.47;;;;;;;;;;5110447;28;20235;-82
2022/09/18 04:22:28;;;;;;;0.40;0.40;;;;;;;;;;5110109;28;20192;-82
2022/09/18 04:24:56;;;;;;;0.40;0.40;;;;;;;;;;5110062;28;20196;-83
2022/09/18 04:27:25;;;;;;;0.40;0.40;;;;;;;;;;5110820;28;20211;-83
2022/09/18 04:29:54;;;;;;;0.50;0.50;;;;;;;;;;5109670;28;20192;-83
2022/09/18 04:32:22;;;;;;;0.40;0.40;;;;;;;;;;5109834;28;20310;-83
2022/09/18 04:34:51;;;;;;;0.40;0.40;;;;;;;;;;5110441;28;20265;-82
2022/09/18 04:37:20;;;;;;;0.43;0.43;;;;;;;;;;5109537;28;20244;-82
2022/09/18 04:39:48;;;;;;;0.50;0.50;;;;;;;;;;5109749;28;20235;-82
2022/09/18 04:42:17;;;;;;;0.47;0.47;;;;;;;;;;5131106;27;20203;-82
2022/09/18 04:44:46;;;;;;;0.50;0.50;;;;;;;;;;5109962;28;20215;-82
2022/09/18 04:47:14;;;;;;;0.50;0.50;;;;;;;;;;5109426;28;20227;-82
2022/09/18 04:49:42;;;;;;;0.40;0.40;;;;;;;;;;5109402;28;20207;-82
2022/09/18 04:52:12;;;;;;;0.50;0.50;;;;;;;;;;5109340;28;20212;-82
2022/09/18 04:54:41;;;;;;;0.40;0.40;;;;;;;;;;5109528;28;20235;-82
2022/09/18 04:57:09;;;;;;;0.50;0.50;;;;;;;;;;5110387;28;20215;-82
2022/09/18 04:59:37;;;;;;;0.40;0.40;;;;;;;;;;5110044;28;20280;-82
2022/09/18 05:02:06;;;;;;;0.50;0.50;;;;;;;;;;5110113;28;20223;-82
2022/09/18 05:04:34;;;;;;;0.40;0.40;;;;;;;;;;5110157;28;20203;-82
2022/09/18 05:07:03;;;;;;;0.50;0.50;;;;;;;;;;5110238;28;20514;-82
2022/09/18 05:09:33;;;;;;;0.50;0.50;;;;;;;;;;5108969;28;20185;-84
2022/09/18 05:12:02;;;;;;;0.50;0.50;;;;;;;;;;5109045;28;20203;-82
2022/09/18 05:14:30;;;;;;;0.40;0.40;;;;;;;;;;5110110;28;20193;-82
2022/09/18 05:16:58;;;;;;;0.40;0.40;;;;;;;;;;5109127;28;20254;-82
2022/09/18 05:19:27;;;;;;;0.40;0.40;;;;;;;;;;5109018;28;20208;-82
2022/09/18 05:21:55;;;;;;;0.47;0.47;;;;;;;;;;5109180;28;20218;-82
2022/09/18 05:24:23;;;;;;;0.50;0.50;;;;;;;;;;5108789;28;20196;-82
2022/09/18 05:26:53;;;;;;;0.50;0.50;;;;;;;;;;5106971;28;20199;-82
2022/09/18 05:29:22;;;;;;;0.50;0.50;;;;;;;;;;5094539;28;20422;-83
2022/09/18 05:31:50;;;;;;;0.50;0.50;;;;;;;;;;5095006;28;20236;-82
2022/09/18 05:34:18;;;;;;;0.40;0.40;;;;;;;;;;5086094;28;20256;-82
2022/09/18 05:36:47;;;;;;;0.40;0.40;;;;;;;;;;5090523;28;20251;-82
2022/09/18 05:39:15;;;;;;;0.40;0.40;;;;;;;;;;5095204;28;20250;-82
2022/09/18 05:41:45;;;;;;;0.50;0.50;;;;;;;;;;5094577;28;20197;-83
2022/09/18 05:44:14;;;;;;;0.50;0.50;;;;;;;;;;5096038;28;20230;-83
2022/09/18 05:46:43;;;;;;;0.50;0.50;;;;;;;;;;5094733;28;20287;-83
2022/09/18 05:49:11;;;;;;;0.50;0.50;;;;;;;;;;5094928;28;20203;-83
2022/09/18 05:51:39;;;;;;;0.50;0.50;;;;;;;;;;5090143;28;20200;-83
2022/09/18 05:54:08;;;;;;;0.50;0.50;;;;;;;;;;5086293;28;20192;-83
2022/09/18 05:56:36;;;;;;;0.50;0.50;;;;;;;;;;5094792;28;20244;-83
2022/09/18 05:59:04;;;;;;;0.50;0.50;;;;;;;;;;5094675;28;20188;-82
2022/09/18 06:01:34;;;;;;;0.50;0.50;;;;;;;;;;5088156;28;20316;-83
2022/09/18 06:04:03;;;;;;;0.50;0.50;;;;;;;;;;5087931;28;20195;-83
2022/09/18 06:06:31;;;;;;;0.50;0.50;;;;;;;;;;5094815;28;20288;-83
2022/09/18 06:09:00;;;;;;;0.50;0.50;;;;;;;;;;5094060;28;20231;-82
2022/09/18 06:11:28;;;;;;;0.50;0.50;;;;;;;;;;5095726;28;20196;-83
2022/09/18 06:13:57;;;;;;;0.53;0.53;;;;;;;;;;5094457;28;20201;-83
2022/09/18 06:16:25;;;;;;;0.50;0.50;;;;;;;;;;5095347;28;20232;-83
2022/09/18 06:18:55;;;;;;;0.60;0.60;;;;;;;;;;5094300;28;20284;-82
2022/09/18 06:21:23;;;;;;;0.50;0.50;;;;;;;;;;5094079;28;20231;-83
2022/09/18 06:23:52;;;;;;;0.50;0.50;;;;;;;;;;5092642;28;20291;-82
2022/09/18 06:26:20;;;;;;;0.50;0.50;;;;;;;;;;5084673;28;20197;-82
2022/09/18 06:28:50;;;;;;;0.50;0.50;;;;;;;;;;5094929;28;20294;-82
2022/09/18 06:31:18;;;;;;;0.50;0.50;;;;;;;;;;5094170;28;20232;-82
2022/09/18 06:33:48;;;;;;;0.50;0.50;;;;;;;;;;5094248;28;20207;-82
2022/09/18 06:36:18;;;;;;;0.50;0.50;;;;;;;;;;5093875;28;20286;-83
2022/09/18 06:38:50;;;;;;;0.50;0.50;;;;;;;;;;5093036;28;20231;-82
2022/09/18 06:41:18;;;;;;;0.43;0.43;;;;;;;;;;5094764;28;20229;-82
2022/09/18 06:43:49;;;;;;;0.50;0.50;;;;;;;;;;5093492;28;20201;-82
2022/09/18 06:46:17;;;;;;;0.50;0.50;;;;;;;;;;5094410;28;20284;-82
2022/09/18 06:48:45;;;;;;;0.50;0.50;;;;;;;;;;5074127;28;20202;-83
2022/09/18 06:51:14;;;;;;;0.50;0.50;;;;;;;;;;5104955;28;20227;-82
2022/09/18 06:53:43;;;;;;;0.50;0.50;;;;;;;;;;5085550;28;20209;-82
2022/09/18 06:56:11;;;;;;;0.50;0.50;;;;;;;;;;5088553;28;20222;-82
2022/09/18 06:58:40;;;;;;;0.50;0.50;;;;;;;;;;5093270;28;20233;-82
2022/09/18 07:01:09;;;;;;;0.50;0.50;;;;;;;;;;5093495;28;20274;-82
2022/09/18 07:03:37;;;;;;;0.50;0.50;;;;;;;;;;5094255;28;20200;-82
2022/09/18 07:06:06;;;;;;;0.50;0.50;;;;;;;;;;5093179;28;20223;-82
2022/09/18 07:08:34;;;;;;;0.50;0.50;;;;;;;;;;5094090;28;20197;-82
2022/09/18 07:11:04;;;;;;;0.40;0.40;;;;;;;;;;5080235;28;20201;-82
2022/09/18 07:13:33;;;;;;;0.50;0.50;;;;;;;;;;5092972;28;20205;-82
2022/09/18 07:16:01;;;;;;;0.50;0.50;;;;;;;;;;5092988;28;20221;-82
2022/09/18 07:18:30;;;;;;;0.50;0.50;;;;;;;;;;5092842;28;20209;-82
2022/09/18 07:20:59;;;;;;;0.50;0.50;;;;;;;;;;5092877;28;20236;-82
2022/09/18 07:23:30;;;;;;;0.40;0.40;;;;;;;;;;5092886;28;20225;-82
2022/09/18 07:25:59;;;;;;;0.50;0.50;;;;;;;;;;5092696;28;20197;-82
2022/09/18 07:28:29;;;;;;;0.40;0.40;;;;;;;;;;5092241;28;20208;-82
2022/09/18 07:31:02;;;;;;;0.50;0.50;;;;;;;;;;5093503;28;20200;-83
2022/09/18 07:33:31;;;;;;;0.40;0.40;;;;;;;;;;5093887;28;20212;-83
2022/09/18 07:36:00;;;;;;;0.50;0.50;;;;;;;;;;5094102;28;20230;-83
2022/09/18 07:38:28;;;;;;;0.50;0.50;;;;;;;;;;5092464;28;20292;-83
2022/09/18 07:41:02;;;;;;;0.50;0.50;;;;;;;;;;5092483;28;20205;-82
2022/09/18 07:43:32;;;;;;;0.40;0.40;;;;;;;;;;5093349;28;20269;-82
2022/09/18 07:46:01;;;;;;;0.50;0.50;;;;;;;;;;5092893;28;20204;-83
2022/09/18 07:48:29;;;;;;;0.40;0.40;;;;;;;;;;5093629;28;20227;-82
2022/09/18 07:50:58;;;;;;;0.40;0.40;;;;;;;;;;5079729;28;20205;-83
2022/09/18 07:53:26;;;;;;;0.40;0.40;;;;;;;;;;5092406;28;20289;-82
2022/09/18 07:55:56;;;;;;;0.40;0.40;;;;;;;;;;5093393;28;20227;-82
2022/09/18 07:58:25;;;;;;;0.40;0.40;;;;;;;;;;5079594;28;20308;-82
2022/09/18 08:00:56;;;;;;;0.40;0.40;;;;;;;;;;5093418;28;20243;-82
2022/09/18 08:03:24;;;;;;;0.40;0.40;;;;;;;;;;5093478;28;20303;-82
2022/09/18 08:05:53;;;;;;;0.40;0.40;;;;;;;;;;5092332;28;20270;-82
2022/09/18 08:08:22;;;;;;;0.40;0.40;;;;;;;;;;5092416;28;20250;-82
2022/09/18 08:10:50;;;;;;;0.40;0.40;;;;;;;;;;5091993;28;20224;-82
2022/09/18 08:13:18;;;;;;;0.43;0.43;;;;;;;;;;5092085;28;20235;-82
2022/09/18 08:15:47;;;;;;;0.43;0.43;;;;;;;;;;5092112;28;20256;-83
2022/09/18 08:18:17;;;;;;;0.40;0.40;;;;;;;;;;5093132;28;20215;-83
2022/09/18 08:20:45;;;;;;;0.40;0.40;;;;;;;;;;5093384;28;20206;-83
2022/09/18 08:23:13;;;;;;;0.50;0.50;;;;;;;;;;5092183;28;20220;-82
2022/09/18 08:25:42;;;;;;;0.50;0.50;;;;;;;;;;5092084;28;20284;-82
2022/09/18 08:28:10;;;;;;;0.50;0.50;;;;;;;;;;5092259;28;20196;-82
2022/09/18 08:30:38;;;;;;;0.40;0.40;;;;;;;;;;5091984;28;20318;-82
2022/09/18 08:33:08;;;;;;;0.40;0.40;;;;;;;;;;5091902;28;20279;-82
2022/09/18 08:35:38;;;;;;;0.40;0.40;;;;;;;;;;5091921;28;20201;-82
2022/09/18 08:38:09;;;;;;;0.50;0.50;;;;;;;;;;5091858;28;20241;-82
2022/09/18 08:40:50;;;;;;;0.50;0.50;;;;;;;;;;5079235;28;20205;-82
2022/09/18 08:43:23;;;;;;;0.50;0.50;;;;;;;;;;5091773;28;20220;-81
2022/09/18 08:45:57;;;;;;;0.50;0.50;;;;;;;;;;5091762;28;20296;-82
2022/09/18 08:48:28;;;;;;;0.40;0.40;;;;;;;;;;5091759;28;20195;-82
2022/09/18 08:51:00;;;;;;;0.40;0.40;;;;;;;;;;5092914;28;20262;-82
2022/09/18 08:53:32;;;;;;;0.40;0.40;;;;;;;;;;5091731;28;20201;-83
2022/09/18 08:56:01;;;;;;;0.40;0.40;;;;;;;;;;5091560;28;20250;-82
2022/09/18 08:58:33;;;;;;;0.50;0.50;;;;;;;;;;5080483;28;20213;-82
2022/09/18 09:01:03;;;;;;;0.50;0.50;;;;;;;;;;5091563;28;20244;-82
2022/09/18 09:03:35;;;;;;;0.50;0.50;;;;;;;;;;5094765;28;20197;-82
2022/09/18 09:06:07;;;;;;;0.50;0.50;;;;;;;;;;5095032;28;20201;-82
2022/09/18 09:08:43;;;;;;;0.50;0.50;;;;;;;;;;5095827;28;20193;-83
2022/09/18 09:11:16;;;;;;;0.50;0.50;;;;;;;;;;5096687;28;20256;-82
2022/09/18 09:14:07;;;;;;;0.50;0.50;;;;;;;;;;5095311;28;20216;-83
2022/09/18 09:16:38;;;;;;;0.50;0.50;;;;;;;;;;5095321;28;20231;-83
2022/09/18 09:19:11;;;;;;;0.40;0.40;;;;;;;;;;5095452;28;20217;-83
2022/09/18 09:21:57;;;;;;;0.50;0.50;;;;;;;;;;5095505;28;20205;-83
2022/09/18 09:24:31;;;;;;;0.40;0.40;;;;;;;;;;5083756;28;20281;-83
2022/09/18 09:27:02;;;;;;;0.50;0.50;;;;;;;;;;5094860;28;20254;-82
2022/09/18 09:29:34;;;;;;;0.40;0.40;;;;;;;;;;5095372;28;20204;-81
2022/09/18 09:32:06;;;;;;;0.50;0.50;;;;;;;;;;5081476;28;20189;-81
2022/09/18 09:34:39;;;;;;;0.50;0.50;;;;;;;;;;5096589;28;20229;-81
2022/09/18 09:37:12;;;;;;;0.40;0.40;;;;;;;;;;5095164;28;20272;-81
2022/09/18 09:39:42;;;;;;;0.40;0.40;;;;;;;;;;5095777;28;20221;-81
2022/09/18 09:42:14;;;;;;;0.50;0.50;;;;;;;;;;5095337;28;20204;-81
2022/09/18 09:44:49;;;;;;;0.40;0.40;;;;;;;;;;5081558;28;20193;-82
2022/09/18 09:47:25;;;;;;;0.50;0.50;;;;;;;;;;5094813;28;20219;-82
2022/09/18 09:50:20;;;;;;;0.40;0.40;;;;;;;;;;5087516;28;20201;-82
2022/09/18 09:52:51;;;;;;;0.40;0.40;;;;;;;;;;5106070;28;20227;-83
2022/09/18 09:55:24;;;;;;;0.50;0.50;;;;;;;;;;5096022;28;20198;-82
2022/09/18 09:58:00;;;;;;;0.40;0.40;;;;;;;;;;5095498;28;20192;-81
2022/09/18 10:00:45;;;;;;;0.50;0.50;;;;;;;;;;5094698;28;20307;-83
2022/09/18 10:03:47;;;;;;;0.40;0.40;;;;;;;;;;5087618;28;20322;-84
2022/09/18 10:06:26;;;;;;;0.50;0.50;;;;;;;;;;5081346;28;20296;-85
2022/09/18 10:08:59;;;;;;;0.50;0.50;;;;;;;;;;5081268;28;20250;-85
2022/09/18 10:11:27;;;;;;;0.50;0.50;;;;;;;;;;5095440;28;20258;-86
2022/09/18 10:13:57;;;;;;;0.40;0.40;;;;;;;;;;5094161;28;20193;-82
2022/09/18 10:16:27;;;;;;;0.50;0.50;;;;;;;;;;5094078;28;20236;-82
2022/09/18 10:18:56;;;;;;;0.40;0.40;;;;;;;;;;5095294;28;20209;-81
2022/09/18 10:21:26;;;;;;;0.40;0.40;;;;;;;;;;5095558;28;20208;-83
2022/09/18 10:23:58;;;;;;;0.50;0.50;;;;;;;;;;5082328;28;20284;-83
2022/09/18 10:26:30;;;;;;;0.40;0.40;;;;;;;;;;5094399;28;20258;-82
2022/09/18 10:28:59;;;;;;;0.40;0.40;;;;;;;;;;5093227;28;20278;-85
2022/09/18 10:31:46;;;;;;;0.40;0.40;;;;;;;;;;5094172;28;20229;-83
2022/09/18 10:34:31;;;;;;;0.40;0.40;;;;;;;;;;5094258;28;20291;-83
2022/09/18 10:36:59;;;;;;;0.40;0.40;;;;;;;;;;5094026;28;20201;-83
2022/09/18 10:39:29;;;;;;;0.40;0.40;;;;;;;;;;5093838;28;20296;-83
2022/09/18 10:42:01;;;;;;;0.40;0.40;;;;;;;;;;5094104;28;20193;-84
2022/09/18 10:44:30;;;;;;;0.40;0.40;;;;;;;;;;5080234;28;20250;-84
2022/09/18 10:47:01;;;;;;;0.50;0.50;;;;;;;;;;5093895;28;20260;-83
2022/09/18 10:49:31;;;;;;;0.40;0.40;;;;;;;;;;5093408;28;20185;-84
2022/09/18 10:52:18;;;;;;;0.40;0.40;;;;;;;;;;5093807;28;20258;-84
2022/09/18 10:54:58;;;;;;;0.40;0.40;;;;;;;;;;5085131;28;20269;-83
2022/09/18 10:57:28;;;;;;;0.50;0.50;;;;;;;;;;5090862;28;20193;-85
2022/09/18 10:59:57;;;;;;;0.40;0.40;;;;;;;;;;5093328;28;20224;-83
2022/09/18 11:02:26;;;;;;;0.47;0.47;;;;;;;;;;5093006;28;20244;-85
2022/09/18 11:04:55;;;;;;;0.40;0.40;;;;;;;;;;5093417;28;20221;-83
2022/09/18 11:07:25;;;;;;;0.40;0.40;;;;;;;;;;5088422;28;20210;-81
2022/09/18 11:09:53;;;;;;;0.40;0.40;;;;;;;;;;5087826;28;20196;-81
2022/09/18 11:12:22;;;;;;;0.40;0.40;;;;;;;;;;5093239;28;20300;-81
2022/09/18 11:14:58;;;;;;;0.40;0.40;;;;;;;;;;5092997;28;20217;-81
2022/09/18 11:17:28;;;;;;;0.40;0.40;;;;;;;;;;5093074;28;20236;-81
2022/09/18 11:19:58;;;;;;;0.40;0.40;;;;;;;;;;5092978;28;20235;-81
2022/09/18 11:22:32;;;;;;;0.40;0.40;;;;;;;;;;5093156;28;20246;-81
2022/09/18 11:25:07;;;;;;;0.40;0.40;;;;;;;;;;5092366;28;20505;-81
2022/09/18 11:27:45;;;;;;;0.40;0.40;;;;;;;;;;5093905;28;20200;-81
2022/09/18 11:30:16;;;;;;;0.40;0.40;;;;;;;;;;5088140;28;20208;-81
2022/09/18 11:32:46;;;;;;;0.40;0.40;;;;;;;;;;5092740;28;20292;-81
2022/09/18 11:35:16;;;;;;;0.40;0.40;;;;;;;;;;5092908;28;20193;-81
2022/09/18 11:37:48;;;;;;;0.40;0.40;;;;;;;;;;5092491;28;20201;-81
2022/09/18 11:40:18;;;;;;;0.50;0.50;;;;;;;;;;5092687;28;20205;-81
2022/09/18 11:42:48;;;;;;;0.40;0.40;;;;;;;;;;5093060;28;20193;-81
2022/09/18 11:45:40;;;;;;;0.40;0.40;;;;;;;;;;5092781;28;20209;-81
2022/09/18 11:48:14;;;;;;;0.40;0.40;;;;;;;;;;5090305;28;20269;-80
2022/09/18 11:50:43;;;;;;;0.50;0.50;;;;;;;;;;5088436;28;20274;-80
2022/09/18 11:53:14;;;;;;;0.50;0.50;;;;;;;;;;5084671;28;20228;-80
2022/09/18 11:55:44;;;;;;;0.50;0.50;;;;;;;;;;5083766;28;20189;-82
2022/09/18 11:58:15;;;;;;;0.50;0.50;;;;;;;;;;5091991;28;20205;-81
2022/09/18 12:00:48;;;;;;;0.50;0.50;;;;;;;;;;5092175;28;20232;-81
2022/09/18 12:03:22;;;;;;;0.50;0.50;;;;;;;;;;5079420;28;20291;-81
2022/09/18 12:05:53;;;;;;;0.50;0.50;;;;;;;;;;5092567;28;20200;-81
2022/09/18 12:08:24;;;;;;;0.40;0.40;;;;;;;;;;5092568;28;20197;-81
2022/09/18 12:10:56;;;;;;;0.50;0.50;;;;;;;;;;5093512;28;20200;-81
2022/09/18 12:13:33;;;;;;;0.50;0.50;;;;;;;;;;5093304;28;20197;-81
2022/09/18 12:16:06;;;;;;;0.40;0.40;;;;;;;;;;5078626;28;20232;-81
2022/09/18 12:18:38;;;;;;;0.50;0.50;;;;;;;;;;5092431;28;20197;-81
2022/09/18 12:21:12;;;;;;;0.40;0.40;;;;;;;;;;5092641;28;20234;-82
2022/09/18 12:23:40;;;;;;;0.47;0.47;;;;;;;;;;5092169;28;20294;-81
2022/09/18 12:26:12;;;;;;;0.40;0.40;;;;;;;;;;5092122;28;20197;-81
2022/09/18 12:28:44;;;;;;;0.50;0.50;;;;;;;;;;5092096;28;20271;-81
2022/09/18 12:31:17;;;;;;;0.40;0.40;;;;;;;;;;5092984;28;20201;-81
2022/09/18 12:33:50;;;;;;;0.50;0.50;;;;;;;;;;5092204;28;20230;-81
2022/09/18 12:36:32;;;;;;;0.50;0.50;;;;;;;;;;5080311;28;20207;-81
2022/09/18 12:39:04;;;;;;;0.40;0.40;;;;;;;;;;5083172;28;20318;-81
2022/09/18 12:41:42;;;;;;;0.40;0.40;;;;;;;;;;5095824;28;20213;-81
2022/09/18 12:44:20;;;;;;;0.40;0.40;;;;;;;;;;5095897;28;20221;-81
2022/09/18 12:46:58;;;;;;;0.40;0.40;;;;;;;;;;5097063;28;20188;-81
2022/09/18 12:49:43;;;;;;;0.40;0.40;;;;;;;;;;5095504;28;20192;-81
2022/09/18 12:52:20;;;;;;;0.50;0.50;;;;;;;;;;5084698;28;20269;-81
2022/09/18 12:54:58;;;;;;;0.47;0.47;;;;;;;;;;5095855;28;20204;-81
2022/09/18 12:57:38;;;;;;;0.40;0.40;;;;;;;;;;5095768;28;20203;-81
2022/09/18 13:00:10;;;;;;;0.40;0.40;;;;;;;;;;5083786;28;20266;-81
2022/09/18 13:02:44;;;;;;;0.40;0.40;;;;;;;;;;5095459;28;20213;-81
2022/09/18 13:05:19;;;;;;;0.50;0.50;;;;;;;;;;5095625;28;20250;-81
2022/09/18 13:07:49;;;;;;;0.40;0.40;;;;;;;;;;5095250;28;20224;-81
2022/09/18 13:10:20;;;;;;;0.40;0.40;;;;;;;;;;5095890;28;20201;-81
2022/09/18 13:12:52;;;;;;;0.40;0.40;;;;;;;;;;5095201;28;20254;-81
2022/09/18 13:15:22;;;;;;;0.40;0.40;;;;;;;;;;5095149;28;20251;-81
2022/09/18 13:17:54;;;;;;;0.40;0.40;;;;;;;;;;5083473;28;20192;-81
2022/09/18 13:20:24;;;;;;;0.40;0.40;;;;;;;;;;5081801;28;20290;-81
2022/09/18 13:22:53;;;;;;;0.40;0.40;;;;;;;;;;5096624;28;20213;-81
2022/09/18 13:25:26;;;;;;;0.40;0.40;;;;;;;;;;5096572;28;20205;-81
2022/09/18 13:27:55;;;;;;;0.40;0.40;;;;;;;;;;5095588;28;20197;-81
2022/09/18 13:30:26;;;;;;;0.40;0.40;;;;;;;;;;5095890;28;20200;-81
2022/09/18 13:32:57;;;;;;;0.40;0.40;;;;;;;;;;5094928;28;20193;-82
2022/09/18 13:35:27;;;;;;;0.40;0.40;;;;;;;;;;5094956;28;20246;-82
2022/09/18 13:38:07;;;;;;;0.40;0.40;;;;;;;;;;5095001;28;20249;-81
2022/09/18 13:40:37;;;;;;;0.40;0.40;;;;;;;;;;5095167;28;20365;-81
2022/09/18 13:43:16;;;;;;;0.40;0.40;;;;;;;;;;5096125;28;20219;-81
2022/09/18 13:45:44;;;;;;;0.50;0.50;;;;;;;;;;5096328;28;20212;-81
2022/09/18 13:48:19;;;;;;;0.40;0.40;;;;;;;;;;5094712;28;20201;-82
2022/09/18 13:50:53;;;;;;;0.40;0.40;;;;;;;;;;5095003;28;20227;-81
2022/09/18 13:53:32;;;;;;;0.40;0.40;;;;;;;;;;5094768;28;20286;-81
2022/09/18 13:56:00;;;;;;;0.40;0.40;;;;;;;;;;5095516;28;20193;-81
2022/09/18 13:58:36;;;;;;;0.50;0.50;;;;;;;;;;5095811;28;20207;-81
2022/09/18 14:01:06;;;;;;;0.40;0.40;;;;;;;;;;5094378;28;20289;-81
2022/09/18 14:03:37;;;;;;;0.40;0.40;;;;;;;;;;5094732;28;20199;-81
2022/09/18 14:06:29;;;;;;;0.40;0.40;;;;;;;;;;5094470;28;20287;-81
2022/09/18 14:08:58;;;;;;;0.40;0.40;;;;;;;;;;5075125;28;20213;-81
2022/09/18 14:11:26;;;;;;;0.43;0.43;;;;;;;;;;5095636;28;20196;-81
2022/09/18 14:13:55;;;;;;;0.40;0.40;;;;;;;;;;5094106;28;20220;-81
2022/09/18 14:16:28;;;;;;;0.40;0.40;;;;;;;;;;5086054;28;20268;-81
2022/09/18 14:19:00;;;;;;;0.40;0.40;;;;;;;;;;5090114;28;20197;-81
2022/09/18 14:21:30;;;;;;;0.40;0.40;;;;;;;;;;5094096;28;20209;-81
2022/09/18 14:24:04;;;;;;;0.50;0.50;;;;;;;;;;5094858;28;20258;-81
2022/09/18 14:26:51;;;;;;;0.40;0.40;;;;;;;;;;5093728;28;20196;-81
2022/09/18 14:29:19;;;;;;;0.40;0.40;;;;;;;;;;5094941;28;20201;-81
2022/09/18 14:31:48;;;;;;;0.40;0.40;;;;;;;;;;5094256;28;20291;-81
2022/09/18 14:34:21;;;;;;;0.40;0.40;;;;;;;;;;5094914;28;20197;-81
2022/09/18 14:36:50;;;;;;;0.40;0.40;;;;;;;;;;5093780;28;20201;-81
2022/09/18 14:39:25;;;;;;;0.40;0.40;;;;;;;;;;5093708;28;20254;-81
2022/09/18 14:41:54;;;;;;;0.40;0.40;;;;;;;;;;5093691;28;20295;-81
2022/09/18 14:44:24;;;;;;;0.50;0.50;;;;;;;;;;5094848;28;20252;-81
2022/09/18 14:46:53;;;;;;;0.40;0.40;;;;;;;;;;5093640;28;20217;-81
2022/09/18 14:49:33;;;;;;;0.40;0.40;;;;;;;;;;5094664;28;20204;-81
2022/09/18 14:52:02;;;;;;;0.47;0.47;;;;;;;;;;5081761;28;20250;-81
2022/09/18 14:54:32;;;;;;;0.50;0.50;;;;;;;;;;5094543;28;20236;-82
2022/09/18 14:57:03;;;;;;;0.40;0.40;;;;;;;;;;5093417;28;20195;-82
2022/09/18 14:59:31;;;;;;;0.50;0.50;;;;;;;;;;5090387;28;20353;-82
2022/09/18 15:02:11;;;;;;;0.50;0.50;;;;;;;;;;5084429;28;20208;-81
2022/09/18 15:04:42;;;;;;;0.50;0.50;;;;;;;;;;5092217;28;20255;-81
2022/09/18 15:07:17;;;;;;;0.50;0.50;;;;;;;;;;5093330;28;20196;-81